sensor_id;sensor_type;location;lat;lon;timestamp;temperature;humidity
26803;DHT22;14378;51.796;5.808;2022-09-30T00:03:09;8.30;99.90
26803;DHT22;14378;51.796;5.808;2022-09-30T00:05:10;8.20;99.90
26803;DHT22;14378;51.796;5.808;2022-09-30T00:07:11;8.20;99.90
26803;DHT22;14378;51.796;5.808;2022-09-30T00:09:12;8.10;99.90
26803;DHT22;14378;51.796;5.808;2022-09-30T00:11:17;8.20;99.90
26803;DHT22;14378;51.796;5.808;2022-09-30T00:13:19;8.20;99.90
26803;DHT22;14378;51.796;5.808;2022-09-30T00:15:19;8.10;99.90
26803;DHT22;14378;51.796;5.808;2022-09-30T00:17:21;8.10;99.90
26803;DHT22;14378;51.796;5.808;2022-09-30T00:19:26;8.10;99.90
26803;DHT22;14378;51.796;5.808;2022-09-30T00:21:31;8.10;99.90
26803;DHT22;14378;51.796;5.808;2022-09-30T00:23:35;8.10;99.90
26803;DHT22;14378;51.796;5.808;2022-09-30T00:25:37;8.10;99.90
26803;DHT22;14378;51.796;5.808;2022-09-30T00:27:38;8.10;99.90
26803;DHT22;14378;51.796;5.808;2022-09-30T00:29:39;8.10;99.90
26803;DHT22;14378;51.796;5.808;2022-09-30T00:31:43;8.10;99.90
26803;DHT22;14378;51.796;5.808;2022-09-30T00:33:45;8.10;99.90
26803;DHT22;14378;51.796;5.808;2022-09-30T00:36:10;8.10;99.90
26803;DHT22;14378;51.796;5.808;2022-09-30T00:38:11;8.10;99.90
26803;DHT22;14378;51.796;5.808;2022-09-30T00:40:12;8.00;99.90
26803;DHT22;14378;51.796;5.808;2022-09-30T00:42:14;8.10;99.90
26803;DHT22;14378;51.796;5.808;2022-09-30T00:46:40;8.00;99.90
26803;DHT22;14378;51.796;5.808;2022-09-30T00:48:41;8.00;99.90
26803;DHT22;14378;51.796;5.808;2022-09-30T00:50:46;8.00;99.90
26803;DHT22;14378;51.796;5.808;2022-09-30T00:53:03;8.00;99.90
26803;DHT22;14378;51.796;5.808;2022-09-30T00:55:08;7.90;99.90
26803;DHT22;14378;51.796;5.808;2022-09-30T00:57:14;7.90;99.90
26803;DHT22;14378;51.796;5.808;2022-09-30T01:01:24;7.80;99.90
26803;DHT22;14378;51.796;5.808;2022-09-30T01:03:25;7.90;99.90
26803;DHT22;14378;51.796;5.808;2022-09-30T01:05:26;7.80;99.90
26803;DHT22;14378;51.796;5.808;2022-09-30T01:07:28;7.80;99.90
26803;DHT22;14378;51.796;5.808;2022-09-30T01:09:35;7.80;99.90
26803;DHT22;14378;51.796;5.808;2022-09-30T01:11:36;7.80;99.90
26803;DHT22;14378;51.796;5.808;2022-09-30T01:13:38;7.80;99.90
26803;DHT22;14378;51.796;5.808;2022-09-30T01:16:57;7.70;99.90
26803;DHT22;14378;51.796;5.808;2022-09-30T01:18:30;7.70;99.90
26803;DHT22;14378;51.796;5.808;2022-09-30T01:35:13;7.60;99.90
26803;DHT22;14378;51.796;5.808;2022-09-30T01:44:34;7.60;99.90
26803;DHT22;14378;51.796;5.808;2022-09-30T01:46:44;7.60;99.90
26803;DHT22;14378;51.796;5.808;2022-09-30T01:49:03;7.50;99.90
26803;DHT22;14378;51.796;5.808;2022-09-30T01:51:18;7.50;99.90
26803;DHT22;14378;51.796;5.808;2022-09-30T01:55:44;7.50;99.90
26803;DHT22;14378;51.796;5.808;2022-09-30T02:00:13;7.50;99.90
26803;DHT22;14378;51.796;5.808;2022-09-30T02:02:18;7.50;99.90
26803;DHT22;14378;51.796;5.808;2022-09-30T02:04:42;7.50;99.90
26803;DHT22;14378;51.796;5.808;2022-09-30T02:06:48;7.50;99.90
26803;DHT22;14378;51.796;5.808;2022-09-30T02:09:02;7.50;99.90
26803;DHT22;14378;51.796;5.808;2022-09-30T02:11:14;7.50;99.90
26803;DHT22;14378;51.796;5.808;2022-09-30T02:13:29;7.40;99.90
26803;DHT22;14378;51.796;5.808;2022-09-30T02:15:42;7.50;99.90
26803;DHT22;14378;51.796;5.808;2022-09-30T02:17:51;7.40;99.90
26803;DHT22;14378;51.796;5.808;2022-09-30T02:20:00;7.40;99.90
26803;DHT22;14378;51.796;5.808;2022-09-30T02:22:13;7.40;99.90
26803;DHT22;14378;51.796;5.808;2022-09-30T02:24:17;7.40;99.90
26803;DHT22;14378;51.796;5.808;2022-09-30T02:26:23;7.40;99.90
26803;DHT22;14378;51.796;5.808;2022-09-30T02:28:26;7.40;99.90
26803;DHT22;14378;51.796;5.808;2022-09-30T02:30:34;7.40;99.90
26803;DHT22;14378;51.796;5.808;2022-09-30T02:32:48;7.30;99.90
26803;DHT22;14378;51.796;5.808;2022-09-30T02:35:20;7.40;99.90
26803;DHT22;14378;51.796;5.808;2022-09-30T02:37:30;7.30;99.90
26803;DHT22;14378;51.796;5.808;2022-09-30T02:39:57;7.30;99.90
26803;DHT22;14378;51.796;5.808;2022-09-30T02:42:05;7.30;99.90
26803;DHT22;14378;51.796;5.808;2022-09-30T02:44:09;7.30;99.90
26803;DHT22;14378;51.796;5.808;2022-09-30T02:46:15;7.30;99.90
26803;DHT22;14378;51.796;5.808;2022-09-30T02:50:46;7.30;99.90
26803;DHT22;14378;51.796;5.808;2022-09-30T02:53:12;7.30;99.90
26803;DHT22;14378;51.796;5.808;2022-09-30T02:57:49;7.20;99.90
26803;DHT22;14378;51.796;5.808;2022-09-30T02:59:54;7.20;99.90
26803;DHT22;14378;51.796;5.808;2022-09-30T03:01:56;7.20;99.90
26803;DHT22;14378;51.796;5.808;2022-09-30T03:04:03;7.20;99.90
26803;DHT22;14378;51.796;5.808;2022-09-30T03:06:05;7.20;99.90
26803;DHT22;14378;51.796;5.808;2022-09-30T03:08:07;7.20;99.90
26803;DHT22;14378;51.796;5.808;2022-09-30T03:10:15;7.10;99.90
26803;DHT22;14378;51.796;5.808;2022-09-30T03:12:41;7.10;99.90
26803;DHT22;14378;51.796;5.808;2022-09-30T03:24:28;7.10;99.90
26803;DHT22;14378;51.796;5.808;2022-09-30T03:33:51;7.00;99.90
26803;DHT22;14378;51.796;5.808;2022-09-30T03:36:00;7.00;99.90
26803;DHT22;14378;51.796;5.808;2022-09-30T03:40:42;7.00;99.90
26803;DHT22;14378;51.796;5.808;2022-09-30T03:42:59;7.00;99.90
26803;DHT22;14378;51.796;5.808;2022-09-30T03:45:16;7.00;99.90
26803;DHT22;14378;51.796;5.808;2022-09-30T03:47:20;6.90;99.90
26803;DHT22;14378;51.796;5.808;2022-09-30T03:49:28;6.90;99.90
26803;DHT22;14378;51.796;5.808;2022-09-30T03:51:31;6.90;99.90
26803;DHT22;14378;51.796;5.808;2022-09-30T03:53:39;6.90;99.90
26803;DHT22;14378;51.796;5.808;2022-09-30T03:55:58;6.90;99.90
26803;DHT22;14378;51.796;5.808;2022-09-30T03:57:59;6.90;99.90
26803;DHT22;14378;51.796;5.808;2022-09-30T04:00:00;6.90;99.90
26803;DHT22;14378;51.796;5.808;2022-09-30T04:02:01;6.90;99.90
26803;DHT22;14378;51.796;5.808;2022-09-30T04:04:03;6.90;99.90
26803;DHT22;14378;51.796;5.808;2022-09-30T04:06:04;6.90;99.90
26803;DHT22;14378;51.796;5.808;2022-09-30T04:08:05;6.90;99.90
26803;DHT22;14378;51.796;5.808;2022-09-30T04:10:06;6.80;99.90
26803;DHT22;14378;51.796;5.808;2022-09-30T04:12:08;6.80;99.90
26803;DHT22;14378;51.796;5.808;2022-09-30T04:14:09;6.80;99.90
26803;DHT22;14378;51.796;5.808;2022-09-30T04:16:10;6.80;99.90
26803;DHT22;14378;51.796;5.808;2022-09-30T04:18:11;6.80;99.90
26803;DHT22;14378;51.796;5.808;2022-09-30T04:20:14;6.80;99.90
26803;DHT22;14378;51.796;5.808;2022-09-30T04:22:15;6.80;99.90
26803;DHT22;14378;51.796;5.808;2022-09-30T04:24:17;6.80;99.90
26803;DHT22;14378;51.796;5.808;2022-09-30T04:26:18;6.90;99.90
26803;DHT22;14378;51.796;5.808;2022-09-30T04:28:23;6.80;99.90
26803;DHT22;14378;51.796;5.808;2022-09-30T04:30:24;6.80;99.90
26803;DHT22;14378;51.796;5.808;2022-09-30T04:32:24;6.80;99.90
26803;DHT22;14378;51.796;5.808;2022-09-30T04:34:25;6.80;99.90
26803;DHT22;14378;51.796;5.808;2022-09-30T04:36:26;6.80;99.90
26803;DHT22;14378;51.796;5.808;2022-09-30T04:38:27;6.80;99.90
26803;DHT22;14378;51.796;5.808;2022-09-30T04:40:29;6.80;99.90
26803;DHT22;14378;51.796;5.808;2022-09-30T04:42:30;6.80;99.90
26803;DHT22;14378;51.796;5.808;2022-09-30T04:44:33;6.80;99.90
26803;DHT22;14378;51.796;5.808;2022-09-30T04:46:35;6.80;99.90
26803;DHT22;14378;51.796;5.808;2022-09-30T04:48:36;6.80;99.90
26803;DHT22;14378;51.796;5.808;2022-09-30T04:50:37;6.80;99.90
26803;DHT22;14378;51.796;5.808;2022-09-30T04:52:42;6.80;99.90
26803;DHT22;14378;51.796;5.808;2022-09-30T04:54:43;6.80;99.90
26803;DHT22;14378;51.796;5.808;2022-09-30T04:56:44;6.90;99.90
26803;DHT22;14378;51.796;5.808;2022-09-30T04:58:48;6.80;99.90
26803;DHT22;14378;51.796;5.808;2022-09-30T05:00:49;6.90;99.90
26803;DHT22;14378;51.796;5.808;2022-09-30T05:02:50;6.90;99.90
26803;DHT22;14378;51.796;5.808;2022-09-30T05:04:53;6.80;99.90
26803;DHT22;14378;51.796;5.808;2022-09-30T05:06:56;6.90;99.90
26803;DHT22;14378;51.796;5.808;2022-09-30T05:08:57;6.80;99.90
26803;DHT22;14378;51.796;5.808;2022-09-30T05:11:01;6.80;99.90
26803;DHT22;14378;51.796;5.808;2022-09-30T05:13:02;6.80;99.90
26803;DHT22;14378;51.796;5.808;2022-09-30T05:15:06;6.80;99.90
26803;DHT22;14378;51.796;5.808;2022-09-30T05:17:08;6.70;99.90
26803;DHT22;14378;51.796;5.808;2022-09-30T05:19:09;6.70;99.90
26803;DHT22;14378;51.796;5.808;2022-09-30T05:21:15;6.70;99.90
26803;DHT22;14378;51.796;5.808;2022-09-30T05:23:18;6.70;99.90
26803;DHT22;14378;51.796;5.808;2022-09-30T05:25:19;6.70;99.90
26803;DHT22;14378;51.796;5.808;2022-09-30T05:27:20;6.70;99.90
26803;DHT22;14378;51.796;5.808;2022-09-30T05:29:23;6.70;99.90
26803;DHT22;14378;51.796;5.808;2022-09-30T05:31:24;6.60;99.90
26803;DHT22;14378;51.796;5.808;2022-09-30T05:33:26;6.60;99.90
26803;DHT22;14378;51.796;5.808;2022-09-30T05:35:31;6.60;99.90
26803;DHT22;14378;51.796;5.808;2022-09-30T05:37:33;6.60;99.90
26803;DHT22;14378;51.796;5.808;2022-09-30T05:39:34;6.60;99.90
26803;DHT22;14378;51.796;5.808;2022-09-30T05:41:36;6.60;99.90
26803;DHT22;14378;51.796;5.808;2022-09-30T05:43:40;6.60;99.90
26803;DHT22;14378;51.796;5.808;2022-09-30T05:45:42;6.60;99.90
26803;DHT22;14378;51.796;5.808;2022-09-30T05:47:53;6.60;99.90
26803;DHT22;14378;51.796;5.808;2022-09-30T05:49:58;6.60;99.90
26803;DHT22;14378;51.796;5.808;2022-09-30T05:52:02;6.60;99.90
26803;DHT22;14378;51.796;5.808;2022-09-30T05:54:03;6.60;99.90
26803;DHT22;14378;51.796;5.808;2022-09-30T05:56:06;6.70;99.90
26803;DHT22;14378;51.796;5.808;2022-09-30T05:58:07;6.70;99.90
26803;DHT22;14378;51.796;5.808;2022-09-30T06:00:09;6.70;99.90
26803;DHT22;14378;51.796;5.808;2022-09-30T06:02:13;6.70;99.90
26803;DHT22;14378;51.796;5.808;2022-09-30T06:04:14;6.70;99.90
26803;DHT22;14378;51.796;5.808;2022-09-30T06:06:15;6.70;99.90
26803;DHT22;14378;51.796;5.808;2022-09-30T06:08:16;6.70;99.90
26803;DHT22;14378;51.796;5.808;2022-09-30T06:10:18;6.70;99.90
26803;DHT22;14378;51.796;5.808;2022-09-30T06:12:18;6.80;99.90
26803;DHT22;14378;51.796;5.808;2022-09-30T06:14:19;6.80;99.90
26803;DHT22;14378;51.796;5.808;2022-09-30T06:16:25;6.80;99.90
26803;DHT22;14378;51.796;5.808;2022-09-30T06:18:27;6.90;99.90
26803;DHT22;14378;51.796;5.808;2022-09-30T06:20:28;6.90;99.90
26803;DHT22;14378;51.796;5.808;2022-09-30T06:22:30;6.90;99.90
26803;DHT22;14378;51.796;5.808;2022-09-30T06:24:31;6.90;99.90
26803;DHT22;14378;51.796;5.808;2022-09-30T06:26:32;6.90;99.90
26803;DHT22;14378;51.796;5.808;2022-09-30T06:28:33;6.90;99.90
26803;DHT22;14378;51.796;5.808;2022-09-30T06:30:35;6.90;99.90
26803;DHT22;14378;51.796;5.808;2022-09-30T06:32:36;6.90;99.90
26803;DHT22;14378;51.796;5.808;2022-09-30T06:34:36;6.90;99.90
26803;DHT22;14378;51.796;5.808;2022-09-30T06:36:38;7.00;99.90
26803;DHT22;14378;51.796;5.808;2022-09-30T06:38:38;7.00;99.90
26803;DHT22;14378;51.796;5.808;2022-09-30T06:40:40;7.00;99.90
26803;DHT22;14378;51.796;5.808;2022-09-30T06:42:41;7.10;99.90
26803;DHT22;14378;51.796;5.808;2022-09-30T06:44:44;7.10;99.90
26803;DHT22;14378;51.796;5.808;2022-09-30T06:46:45;7.10;99.90
26803;DHT22;14378;51.796;5.808;2022-09-30T06:48:46;7.20;99.90
26803;DHT22;14378;51.796;5.808;2022-09-30T06:50:48;7.20;99.90
26803;DHT22;14378;51.796;5.808;2022-09-30T06:52:58;7.30;99.90
26803;DHT22;14378;51.796;5.808;2022-09-30T06:54:59;7.30;99.90
26803;DHT22;14378;51.796;5.808;2022-09-30T06:57:00;7.40;99.90
26803;DHT22;14378;51.796;5.808;2022-09-30T06:59:01;7.40;99.90
26803;DHT22;14378;51.796;5.808;2022-09-30T07:01:05;7.50;99.90
26803;DHT22;14378;51.796;5.808;2022-09-30T07:03:08;7.50;99.90
26803;DHT22;14378;51.796;5.808;2022-09-30T07:05:17;7.60;99.90
26803;DHT22;14378;51.796;5.808;2022-09-30T07:07:19;7.60;99.90
26803;DHT22;14378;51.796;5.808;2022-09-30T07:09:24;7.70;99.90
26803;DHT22;14378;51.796;5.808;2022-09-30T07:11:25;7.70;99.90
26803;DHT22;14378;51.796;5.808;2022-09-30T07:13:26;7.80;99.90
26803;DHT22;14378;51.796;5.808;2022-09-30T07:15:28;7.80;99.90
26803;DHT22;14378;51.796;5.808;2022-09-30T07:17:29;7.90;99.90
26803;DHT22;14378;51.796;5.808;2022-09-30T07:19:30;7.90;99.90
26803;DHT22;14378;51.796;5.808;2022-09-30T07:21:33;8.00;99.90
26803;DHT22;14378;51.796;5.808;2022-09-30T07:23:34;8.00;99.90
26803;DHT22;14378;51.796;5.808;2022-09-30T07:25:35;8.10;99.90
26803;DHT22;14378;51.796;5.808;2022-09-30T07:27:37;8.10;99.90
26803;DHT22;14378;51.796;5.808;2022-09-30T07:29:38;8.20;99.90
26803;DHT22;14378;51.796;5.808;2022-09-30T07:31:40;8.30;99.90
26803;DHT22;14378;51.796;5.808;2022-09-30T07:33:41;8.30;99.90
26803;DHT22;14378;51.796;5.808;2022-09-30T07:35:58;8.40;99.90
26803;DHT22;14378;51.796;5.808;2022-09-30T07:37:59;8.40;99.90
26803;DHT22;14378;51.796;5.808;2022-09-30T07:40:03;8.50;99.90
26803;DHT22;14378;51.796;5.808;2022-09-30T07:42:05;8.60;99.90
26803;DHT22;14378;51.796;5.808;2022-09-30T07:44:09;8.60;99.90
26803;DHT22;14378;51.796;5.808;2022-09-30T07:46:14;8.70;99.90
26803;DHT22;14378;51.796;5.808;2022-09-30T07:48:16;8.80;99.90
26803;DHT22;14378;51.796;5.808;2022-09-30T07:50:36;8.90;99.90
26803;DHT22;14378;51.796;5.808;2022-09-30T07:52:37;8.90;99.90
26803;DHT22;14378;51.796;5.808;2022-09-30T07:54:38;9.00;99.90
26803;DHT22;14378;51.796;5.808;2022-09-30T07:56:39;9.10;99.90
26803;DHT22;14378;51.796;5.808;2022-09-30T07:58:42;9.20;99.90
26803;DHT22;14378;51.796;5.808;2022-09-30T08:00:46;9.20;99.90
26803;DHT22;14378;51.796;5.808;2022-09-30T08:02:48;9.30;99.90
26803;DHT22;14378;51.796;5.808;2022-09-30T08:04:49;9.40;99.90
26803;DHT22;14378;51.796;5.808;2022-09-30T08:06:54;9.50;99.90
26803;DHT22;14378;51.796;5.808;2022-09-30T08:08:57;9.50;99.90
26803;DHT22;14378;51.796;5.808;2022-09-30T08:11:00;9.60;99.90
26803;DHT22;14378;51.796;5.808;2022-09-30T08:13:01;9.70;99.90
26803;DHT22;14378;51.796;5.808;2022-09-30T08:15:03;9.70;99.90
26803;DHT22;14378;51.796;5.808;2022-09-30T08:17:05;9.80;99.90
26803;DHT22;14378;51.796;5.808;2022-09-30T08:19:06;9.90;99.90
26803;DHT22;14378;51.796;5.808;2022-09-30T08:21:08;10.00;99.90
26803;DHT22;14378;51.796;5.808;2022-09-30T08:23:09;10.00;99.90
26803;DHT22;14378;51.796;5.808;2022-09-30T08:25:09;10.10;99.90
26803;DHT22;14378;51.796;5.808;2022-09-30T08:27:10;10.10;99.90
26803;DHT22;14378;51.796;5.808;2022-09-30T08:29:11;10.20;99.90
26803;DHT22;14378;51.796;5.808;2022-09-30T08:31:20;10.30;99.90
26803;DHT22;14378;51.796;5.808;2022-09-30T08:33:22;10.40;99.90
26803;DHT22;14378;51.796;5.808;2022-09-30T08:35:23;10.40;99.90
26803;DHT22;14378;51.796;5.808;2022-09-30T08:37:24;10.50;99.90
26803;DHT22;14378;51.796;5.808;2022-09-30T08:39:25;10.60;99.90
26803;DHT22;14378;51.796;5.808;2022-09-30T08:48:51;11.00;99.90
26803;DHT22;14378;51.796;5.808;2022-09-30T08:51:35;11.10;99.90
26803;DHT22;14378;51.796;5.808;2022-09-30T08:53:40;11.20;99.90
26803;DHT22;14378;51.796;5.808;2022-09-30T08:55:43;11.30;99.90
26803;DHT22;14378;51.796;5.808;2022-09-30T08:57:45;11.50;99.90
26803;DHT22;14378;51.796;5.808;2022-09-30T08:59:59;11.60;99.90
26803;DHT22;14378;51.796;5.808;2022-09-30T09:04:47;11.90;99.90
26803;DHT22;14378;51.796;5.808;2022-09-30T09:09:11;12.10;99.90
26803;DHT22;14378;51.796;5.808;2022-09-30T09:14:31;12.50;99.90
26803;DHT22;14378;51.796;5.808;2022-09-30T09:16:55;12.70;99.90
26803;DHT22;14378;51.796;5.808;2022-09-30T09:19:12;13.00;99.90
26803;DHT22;14378;51.796;5.808;2022-09-30T09:22:09;13.20;99.90
26803;DHT22;14378;51.796;5.808;2022-09-30T09:23:52;13.40;99.90
26803;DHT22;14378;51.796;5.808;2022-09-30T09:25:55;13.70;99.90
26803;DHT22;14378;51.796;5.808;2022-09-30T09:27:59;13.80;99.90
26803;DHT22;14378;51.796;5.808;2022-09-30T09:30:07;14.10;99.90
26803;DHT22;14378;51.796;5.808;2022-09-30T09:32:14;14.30;99.90
26803;DHT22;14378;51.796;5.808;2022-09-30T09:34:17;14.50;99.90
26803;DHT22;14378;51.796;5.808;2022-09-30T09:43:31;15.30;99.90
26803;DHT22;14378;51.796;5.808;2022-09-30T09:45:47;15.50;99.90
26803;DHT22;14378;51.796;5.808;2022-09-30T09:47:54;15.70;99.90
26803;DHT22;14378;51.796;5.808;2022-09-30T09:49:59;16.00;99.90
26803;DHT22;14378;51.796;5.808;2022-09-30T09:54:16;16.40;99.90
26803;DHT22;14378;51.796;5.808;2022-09-30T09:56:21;16.50;99.90
26803;DHT22;14378;51.796;5.808;2022-09-30T09:58:24;16.60;99.90
26803;DHT22;14378;51.796;5.808;2022-09-30T10:00:25;16.70;99.90
26803;DHT22;14378;51.796;5.808;2022-09-30T10:03:25;16.90;99.90
26803;DHT22;14378;51.796;5.808;2022-09-30T10:05:28;17.10;99.90
26803;DHT22;14378;51.796;5.808;2022-09-30T10:07:32;17.20;99.90
26803;DHT22;14378;51.796;5.808;2022-09-30T10:09:38;17.20;99.90
26803;DHT22;14378;51.796;5.808;2022-09-30T10:11:40;17.20;99.90
26803;DHT22;14378;51.796;5.808;2022-09-30T10:13:43;17.10;99.90
26803;DHT22;14378;51.796;5.808;2022-09-30T10:15:44;17.10;99.90
26803;DHT22;14378;51.796;5.808;2022-09-30T10:17:56;17.10;99.90
26803;DHT22;14378;51.796;5.808;2022-09-30T10:20:18;17.30;99.90
26803;DHT22;14378;51.796;5.808;2022-09-30T10:22:26;17.50;99.90
26803;DHT22;14378;51.796;5.808;2022-09-30T10:24:29;17.90;99.90
26803;DHT22;14378;51.796;5.808;2022-09-30T10:26:43;18.10;99.90
26803;DHT22;14378;51.796;5.808;2022-09-30T10:28:47;18.20;99.90
26803;DHT22;14378;51.796;5.808;2022-09-30T10:32:52;18.40;99.90
26803;DHT22;14378;51.796;5.808;2022-09-30T10:35:15;18.50;99.90
26803;DHT22;14378;51.796;5.808;2022-09-30T10:37:20;18.60;99.90
26803;DHT22;14378;51.796;5.808;2022-09-30T10:39:33;18.60;99.90
26803;DHT22;14378;51.796;5.808;2022-09-30T10:41:36;18.60;99.90
26803;DHT22;14378;51.796;5.808;2022-09-30T10:43:46;18.50;99.90
26803;DHT22;14378;51.796;5.808;2022-09-30T10:45:50;18.50;99.90
26803;DHT22;14378;51.796;5.808;2022-09-30T10:47:53;18.60;99.90
26803;DHT22;14378;51.796;5.808;2022-09-30T10:52:05;19.10;99.90
26803;DHT22;14378;51.796;5.808;2022-09-30T10:54:41;19.30;99.90
26803;DHT22;14378;51.796;5.808;2022-09-30T10:56:44;19.50;99.90
26803;DHT22;14378;51.796;5.808;2022-09-30T10:58:48;19.80;99.90
26803;DHT22;14378;51.796;5.808;2022-09-30T11:01:22;19.90;99.90
26803;DHT22;14378;51.796;5.808;2022-09-30T11:03:42;20.00;99.90
26803;DHT22;14378;51.796;5.808;2022-09-30T11:05:48;19.50;99.90
26803;DHT22;14378;51.796;5.808;2022-09-30T11:10:37;19.50;99.90
26803;DHT22;14378;51.796;5.808;2022-09-30T11:12:49;19.60;99.90
26803;DHT22;14378;51.796;5.808;2022-09-30T11:14:59;19.60;99.90
26803;DHT22;14378;51.796;5.808;2022-09-30T11:17:21;19.60;99.90
26803;DHT22;14378;51.796;5.808;2022-09-30T11:19:29;19.70;99.90
26803;DHT22;14378;51.796;5.808;2022-09-30T11:21:48;19.80;99.90
26803;DHT22;14378;51.796;5.808;2022-09-30T11:23:59;20.00;99.90
26803;DHT22;14378;51.796;5.808;2022-09-30T11:28:51;19.50;99.90
26803;DHT22;14378;51.796;5.808;2022-09-30T11:31:15;19.40;99.90
26803;DHT22;14378;51.796;5.808;2022-09-30T11:36:12;19.40;99.90
26803;DHT22;14378;51.796;5.808;2022-09-30T11:44:44;19.60;99.90
26803;DHT22;14378;51.796;5.808;2022-09-30T11:57:14;20.60;99.90
26803;DHT22;14378;51.796;5.808;2022-09-30T11:58:58;20.60;99.90
26803;DHT22;14378;51.796;5.808;2022-09-30T12:03:17;20.90;99.90
26803;DHT22;14378;51.796;5.808;2022-09-30T12:05:35;20.60;99.90
26803;DHT22;14378;51.796;5.808;2022-09-30T12:07:48;20.70;99.90
26803;DHT22;14378;51.796;5.808;2022-09-30T12:10:15;20.80;99.90
26803;DHT22;14378;51.796;5.808;2022-09-30T12:12:16;20.80;99.90
26803;DHT22;14378;51.796;5.808;2022-09-30T12:14:25;20.60;99.90
26803;DHT22;14378;51.796;5.808;2022-09-30T12:16:30;20.50;99.90
26803;DHT22;14378;51.796;5.808;2022-09-30T12:18:41;20.40;99.90
26803;DHT22;14378;51.796;5.808;2022-09-30T12:20:51;20.40;99.90
26803;DHT22;14378;51.796;5.808;2022-09-30T12:25:30;20.60;99.90
26803;DHT22;14378;51.796;5.808;2022-09-30T12:27:38;20.60;99.90
26803;DHT22;14378;51.796;5.808;2022-09-30T12:29:54;20.50;99.90
26803;DHT22;14378;51.796;5.808;2022-09-30T12:32:37;20.40;99.90
26803;DHT22;14378;51.796;5.808;2022-09-30T12:41:58;20.40;99.90
26803;DHT22;14378;51.796;5.808;2022-09-30T12:47:07;20.90;99.90
26803;DHT22;14378;51.796;5.808;2022-09-30T12:49:12;20.90;99.90
26803;DHT22;14378;51.796;5.808;2022-09-30T12:51:42;20.80;99.80
26803;DHT22;14378;51.796;5.808;2022-09-30T12:53:49;20.80;99.90
26803;DHT22;14378;51.796;5.808;2022-09-30T12:55:52;20.60;99.90
26803;DHT22;14378;51.796;5.808;2022-09-30T12:57:53;20.60;99.90
26803;DHT22;14378;51.796;5.808;2022-09-30T13:00:00;20.60;99.90
26803;DHT22;14378;51.796;5.808;2022-09-30T13:02:03;20.70;99.90
26803;DHT22;14378;51.796;5.808;2022-09-30T13:06:07;20.30;99.40
26803;DHT22;14378;51.796;5.808;2022-09-30T13:10:28;20.20;99.90
26803;DHT22;14378;51.796;5.808;2022-09-30T13:12:44;20.10;99.90
26803;DHT22;14378;51.796;5.808;2022-09-30T13:15:20;19.90;99.90
26803;DHT22;14378;51.796;5.808;2022-09-30T13:17:24;19.70;99.90
26803;DHT22;14378;51.796;5.808;2022-09-30T13:21:39;20.00;99.90
26803;DHT22;14378;51.796;5.808;2022-09-30T13:23:46;20.10;99.90
26803;DHT22;14378;51.796;5.808;2022-09-30T13:25:54;20.30;99.90
26803;DHT22;14378;51.796;5.808;2022-09-30T13:32:33;19.90;99.90
26803;DHT22;14378;51.796;5.808;2022-09-30T13:34:52;19.60;99.90
26803;DHT22;14378;51.796;5.808;2022-09-30T13:37:04;19.40;99.90
26803;DHT22;14378;51.796;5.808;2022-09-30T13:39:17;19.40;99.90
26803;DHT22;14378;51.796;5.808;2022-09-30T13:41:22;19.50;99.90
26803;DHT22;14378;51.796;5.808;2022-09-30T13:45:53;19.90;99.90
26803;DHT22;14378;51.796;5.808;2022-09-30T13:48:06;19.90;99.90
26803;DHT22;14378;51.796;5.808;2022-09-30T13:50:32;20.00;99.90
26803;DHT22;14378;51.796;5.808;2022-09-30T13:52:37;20.00;99.90
26803;DHT22;14378;51.796;5.808;2022-09-30T13:54:42;19.80;99.90
26803;DHT22;14378;51.796;5.808;2022-09-30T13:56:48;19.60;99.90
26803;DHT22;14378;51.796;5.808;2022-09-30T13:59:10;19.50;99.90
26803;DHT22;14378;51.796;5.808;2022-09-30T14:01:21;19.40;99.90
26803;DHT22;14378;51.796;5.808;2022-09-30T14:03:53;19.50;99.90
26803;DHT22;14378;51.796;5.808;2022-09-30T14:06:20;19.50;99.90
26803;DHT22;14378;51.796;5.808;2022-09-30T14:18:01;19.60;99.90
26803;DHT22;14378;51.796;5.808;2022-09-30T14:20:21;19.60;99.90
26803;DHT22;14378;51.796;5.808;2022-09-30T14:22:26;19.50;99.90
26803;DHT22;14378;51.796;5.808;2022-09-30T14:24:33;19.40;99.90
26803;DHT22;14378;51.796;5.808;2022-09-30T14:26:41;19.20;99.90
26803;DHT22;14378;51.796;5.808;2022-09-30T14:29:13;19.00;99.90
26803;DHT22;14378;51.796;5.808;2022-09-30T14:31:15;18.90;99.90
26803;DHT22;14378;51.796;5.808;2022-09-30T14:33:25;18.70;99.90
26803;DHT22;14378;51.796;5.808;2022-09-30T14:35:30;18.60;99.90
26803;DHT22;14378;51.796;5.808;2022-09-30T14:37:36;18.60;99.90
26803;DHT22;14378;51.796;5.808;2022-09-30T14:39:38;18.60;99.90
26803;DHT22;14378;51.796;5.808;2022-09-30T14:41:40;18.60;99.90
26803;DHT22;14378;51.796;5.808;2022-09-30T14:43:52;18.40;99.90
26803;DHT22;14378;51.796;5.808;2022-09-30T14:45:55;18.30;99.90
26803;DHT22;14378;51.796;5.808;2022-09-30T14:48:06;18.30;99.90
26803;DHT22;14378;51.796;5.808;2022-09-30T14:50:13;18.30;99.90
26803;DHT22;14378;51.796;5.808;2022-09-30T14:52:44;18.20;99.90
26803;DHT22;14378;51.796;5.808;2022-09-30T14:54:46;18.20;99.90
26803;DHT22;14378;51.796;5.808;2022-09-30T14:56:48;18.10;99.90
26803;DHT22;14378;51.796;5.808;2022-09-30T14:58:50;18.10;99.90
26803;DHT22;14378;51.796;5.808;2022-09-30T15:01:05;17.90;99.90
26803;DHT22;14378;51.796;5.808;2022-09-30T15:03:11;17.90;99.90
26803;DHT22;14378;51.796;5.808;2022-09-30T15:05:14;17.80;99.90
26803;DHT22;14378;51.796;5.808;2022-09-30T15:07:15;17.80;99.90
26803;DHT22;14378;51.796;5.808;2022-09-30T15:11:35;17.70;99.90
26803;DHT22;14378;51.796;5.808;2022-09-30T15:13:36;17.60;99.90
26803;DHT22;14378;51.796;5.808;2022-09-30T15:15:40;17.60;99.90
26803;DHT22;14378;51.796;5.808;2022-09-30T15:17:40;17.60;99.90
26803;DHT22;14378;51.796;5.808;2022-09-30T15:19:42;17.50;99.90
26803;DHT22;14378;51.796;5.808;2022-09-30T15:21:43;17.50;99.90
26803;DHT22;14378;51.796;5.808;2022-09-30T15:23:48;17.50;99.90
26803;DHT22;14378;51.796;5.808;2022-09-30T15:25:54;17.50;99.90
26803;DHT22;14378;51.796;5.808;2022-09-30T15:27:56;17.50;99.90
26803;DHT22;14378;51.796;5.808;2022-09-30T15:29:58;17.50;99.90
26803;DHT22;14378;51.796;5.808;2022-09-30T15:32:20;17.50;99.90
26803;DHT22;14378;51.796;5.808;2022-09-30T15:34:24;17.60;99.90
26803;DHT22;14378;51.796;5.808;2022-09-30T15:36:26;17.60;99.90
26803;DHT22;14378;51.796;5.808;2022-09-30T15:38:29;17.60;99.90
26803;DHT22;14378;51.796;5.808;2022-09-30T15:40:31;17.60;99.90
26803;DHT22;14378;51.796;5.808;2022-09-30T15:42:56;17.60;99.90
26803;DHT22;14378;51.796;5.808;2022-09-30T15:45:31;17.60;99.90
26803;DHT22;14378;51.796;5.808;2022-09-30T15:47:53;17.60;99.90
26803;DHT22;14378;51.796;5.808;2022-09-30T15:49:55;17.50;99.90
26803;DHT22;14378;51.796;5.808;2022-09-30T15:52:25;17.50;99.90
26803;DHT22;14378;51.796;5.808;2022-09-30T15:54:39;17.40;99.90
26803;DHT22;14378;51.796;5.808;2022-09-30T15:56:41;17.40;99.90
26803;DHT22;14378;51.796;5.808;2022-09-30T15:59:08;17.30;99.90
26803;DHT22;14378;51.796;5.808;2022-09-30T16:01:34;17.30;99.90